createdAt,value
2018-03-29T00:00:41.937Z,87.90
2018-03-29T00:03:08.194Z,88.50
2018-03-29T00:05:35.321Z,90.50
2018-03-29T00:08:02.402Z,89.00
2018-03-29T00:10:28.675Z,89.10
2018-03-29T00:12:54.932Z,89.30
2018-03-29T00:15:23.121Z,89.10
2018-03-29T00:17:50.109Z,88.50
2018-03-29T00:20:17.017Z,88.60
2018-03-29T00:22:44.017Z,89.60
2018-03-29T00:25:10.245Z,89.60
2018-03-29T00:27:36.980Z,89.00
2018-03-29T00:30:03.995Z,88.80
2018-03-29T00:32:30.970Z,88.50
2018-03-29T00:34:57.201Z,88.50
2018-03-29T00:37:23.825Z,88.10
2018-03-29T00:39:51.114Z,88.40
2018-03-29T00:42:17.929Z,88.40
2018-03-29T00:44:45.810Z,88.30
2018-03-29T00:47:12.802Z,88.80
2018-03-29T00:49:39.475Z,88.80
2018-03-29T00:52:05.833Z,88.80
2018-03-29T00:54:33.369Z,88.30
2018-03-29T00:56:59.628Z,88.30
2018-03-29T00:59:26.611Z,90.40
2018-03-29T01:01:52.873Z,89.80
2018-03-29T01:04:19.113Z,90.00
2018-03-29T01:06:46.083Z,89.60
2018-03-29T01:09:12.332Z,89.80
2018-03-29T01:11:38.569Z,91.30
2018-03-29T01:14:06.140Z,90.10
2018-03-29T01:16:33.132Z,89.70
2018-03-29T01:18:59.417Z,89.80
2018-03-29T01:21:26.081Z,90.20
2018-03-29T01:23:52.338Z,89.60
2018-03-29T01:26:19.251Z,90.20
2018-03-29T01:28:46.917Z,90.10
2018-03-29T01:31:13.905Z,90.20
2018-03-29T01:33:40.137Z,90.20
2018-03-29T01:36:06.921Z,90.50
2018-03-29T01:38:33.897Z,90.80
2018-03-29T01:41:00.889Z,91.80
2018-03-29T01:43:27.601Z,91.10
2018-03-29T01:45:54.579Z,92.80
2018-03-29T01:48:21.353Z,92.90
2018-03-29T01:50:47.578Z,92.10
2018-03-29T01:53:14.265Z,91.40
2018-03-29T01:55:40.516Z,92.50
2018-03-29T01:58:07.510Z,91.30
2018-03-29T02:00:33.777Z,92.10
2018-03-29T02:03:00.034Z,92.20
2018-03-29T02:05:27.129Z,92.50
2018-03-29T02:07:53.804Z,92.60
2018-03-29T02:10:20.577Z,92.20
2018-03-29T02:12:48.106Z,92.40
2018-03-29T02:15:14.345Z,92.40
2018-03-29T02:17:40.593Z,92.00
2018-03-29T02:20:07.457Z,93.30
2018-03-29T02:22:34.441Z,90.70
2018-03-29T02:25:01.349Z,90.80
2018-03-29T02:27:28.074Z,91.20
2018-03-29T02:29:54.850Z,91.60
2018-03-29T02:32:21.868Z,91.00
2018-03-29T02:34:48.754Z,91.10
2018-03-29T02:37:15.740Z,91.80
2018-03-29T02:39:42.659Z,91.90
2018-03-29T02:42:10.202Z,91.70
2018-03-29T02:44:36.450Z,91.70
2018-03-29T02:47:03.436Z,91.90
2018-03-29T02:49:30.145Z,92.00
2018-03-29T02:51:57.131Z,92.00
2018-03-29T02:54:23.414Z,92.00
2018-03-29T02:56:49.970Z,91.60
2018-03-29T02:59:16.977Z,92.90
2018-03-29T03:01:43.315Z,92.90
2018-03-29T03:04:09.905Z,92.40
2018-03-29T03:06:37.561Z,94.40
2018-03-29T03:09:04.462Z,94.40
2018-03-29T03:11:30.710Z,94.70
2018-03-29T03:13:56.962Z,93.80
2018-03-29T03:16:23.512Z,95.00
2018-03-29T03:18:49.756Z,94.80
2018-03-29T03:21:16.773Z,94.30
2018-03-29T03:23:43.561Z,96.20
2018-03-29T03:26:10.613Z,93.80
2018-03-29T03:28:37.938Z,95.10
2018-03-29T03:31:04.188Z,95.20
2018-03-29T03:33:30.433Z,95.50
2018-03-29T03:35:56.986Z,95.00
2018-03-29T03:38:23.977Z,95.30
2018-03-29T03:40:50.981Z,95.40
2018-03-29T03:43:18.749Z,95.80
2018-03-29T03:45:44.969Z,95.10
2018-03-29T03:48:12.660Z,97.30
2018-03-29T03:50:39.641Z,96.70
2018-03-29T03:53:05.898Z,96.00
2018-03-29T03:55:32.678Z,96.00
2018-03-29T03:57:58.928Z,96.90
2018-03-29T04:00:25.913Z,94.80
2018-03-29T04:02:52.200Z,94.90
2018-03-29T04:05:18.449Z,94.30
2018-03-29T04:07:46.003Z,95.60
2018-03-29T04:10:14.169Z,96.00
2018-03-29T04:12:40.788Z,95.90
2018-03-29T04:15:07.021Z,95.30
2018-03-29T04:17:33.609Z,96.20
2018-03-29T04:20:01.177Z,95.10
2018-03-29T04:22:28.713Z,96.20
2018-03-29T04:24:55.517Z,96.10
2018-03-29T04:27:22.204Z,95.70
2018-03-29T04:29:48.451Z,96.00
2018-03-29T04:32:15.717Z,94.20
2018-03-29T04:34:43.007Z,95.00
2018-03-29T04:37:09.255Z,95.00
2018-03-29T04:39:35.933Z,94.00
2018-03-29T04:42:03.409Z,94.90
2018-03-29T04:44:29.650Z,95.00
2018-03-29T04:46:56.626Z,94.70
2018-03-29T04:49:23.229Z,94.80
2018-03-29T04:51:49.473Z,94.90
2018-03-29T04:54:16.817Z,94.80
2018-03-29T04:56:43.073Z,93.60
2018-03-29T04:59:10.569Z,91.90
2018-03-29T05:01:36.817Z,91.90
2018-03-29T05:04:03.747Z,92.10
2018-03-29T05:06:30.324Z,91.90
2018-03-29T05:08:56.601Z,92.30
2018-03-29T05:11:23.610Z,92.90
2018-03-29T05:13:49.868Z,93.00
2018-03-29T05:16:18.803Z,92.80
2018-03-29T05:18:45.545Z,92.00
2018-03-29T05:21:11.809Z,92.20
2018-03-29T05:23:38.243Z,92.20
2018-03-29T05:26:06.524Z,92.80
2018-03-29T05:28:33.099Z,92.20
2018-03-29T05:30:59.361Z,91.00
2018-03-29T05:33:26.353Z,92.50
2018-03-29T05:35:52.641Z,92.50
2018-03-29T05:38:19.620Z,93.40
2018-03-29T05:40:46.618Z,93.40
2018-03-29T05:43:13.539Z,92.40
2018-03-29T05:45:40.349Z,93.40
2018-03-29T05:48:08.106Z,92.70
2018-03-29T05:50:34.956Z,92.70
2018-03-29T05:53:02.309Z,92.90
2018-03-29T05:55:28.553Z,92.90
2018-03-29T05:57:55.533Z,91.90
2018-03-29T06:00:22.233Z,91.80
2018-03-29T06:02:50.025Z,93.00
2018-03-29T06:05:17.377Z,92.90
2018-03-29T06:07:44.842Z,92.60
2018-03-29T06:10:11.825Z,92.50
2018-03-29T06:12:38.635Z,92.60
2018-03-29T06:15:12.329Z,92.80
2018-03-29T06:17:39.073Z,92.10
2018-03-29T06:20:06.141Z,91.30
2018-03-29T06:22:33.208Z,91.80
2018-03-29T06:25:00.187Z,92.00
2018-03-29T06:27:26.705Z,92.00
2018-03-29T06:29:53.559Z,91.50
2018-03-29T06:32:19.841Z,91.40
2018-03-29T06:34:46.101Z,90.90
2018-03-29T06:37:13.189Z,92.30
2018-03-29T06:39:40.201Z,92.30
2018-03-29T06:42:06.954Z,93.10
2018-03-29T06:44:33.939Z,91.70
2018-03-29T06:47:00.232Z,91.80
2018-03-29T06:49:26.993Z,93.20
2018-03-29T06:51:54.663Z,93.70
2018-03-29T06:54:21.645Z,94.10
2018-03-29T06:56:47.917Z,94.10
2018-03-29T06:59:15.826Z,93.70
2018-03-29T07:01:42.809Z,95.20
2018-03-29T07:04:09.084Z,95.20
2018-03-29T07:06:35.771Z,95.30
2018-03-29T07:09:02.082Z,95.10
2018-03-29T07:11:29.730Z,96.20
2018-03-29T07:13:56.601Z,96.30
2018-03-29T07:16:23.608Z,95.80
2018-03-29T07:18:49.861Z,95.90
2018-03-29T07:21:16.417Z,95.00
2018-03-29T07:23:42.660Z,94.70
2018-03-29T07:26:10.431Z,94.60
2018-03-29T07:28:37.989Z,95.30
2018-03-29T07:31:04.985Z,95.00
2018-03-29T07:33:31.801Z,95.00
2018-03-29T07:35:58.789Z,94.20
2018-03-29T07:38:25.681Z,94.30
2018-03-29T07:40:52.108Z,93.80
2018-03-29T07:43:19.179Z,93.60
2018-03-29T07:45:46.170Z,92.50
2018-03-29T07:48:12.997Z,92.50
2018-03-29T07:50:39.244Z,91.70
2018-03-29T07:53:05.490Z,92.20
2018-03-29T07:55:31.754Z,91.60
2018-03-29T07:57:58.543Z,92.00
2018-03-29T08:00:24.772Z,91.70
2018-03-29T08:02:51.050Z,91.50
2018-03-29T08:05:17.529Z,91.40
2018-03-29T08:07:44.385Z,88.30
2018-03-29T08:10:12.369Z,85.60
2018-03-29T08:12:39.353Z,87.80
2018-03-29T08:15:05.637Z,87.90
2018-03-29T08:17:31.889Z,86.20
2018-03-29T08:19:58.873Z,86.40
2018-03-29T08:22:25.681Z,86.40
2018-03-29T08:24:53.297Z,87.20
2018-03-29T08:27:20.363Z,87.20
2018-03-29T08:29:46.577Z,87.70
2018-03-29T08:32:12.862Z,87.80
2018-03-29T08:34:39.409Z,90.60
2018-03-29T08:37:06.425Z,90.20
2018-03-29T08:39:33.113Z,90.10
2018-03-29T08:42:00.619Z,92.30
2018-03-29T08:44:26.881Z,92.40
2018-03-29T08:46:53.155Z,92.70
2018-03-29T08:49:19.866Z,92.70
2018-03-29T08:51:46.122Z,92.50
2018-03-29T08:54:13.890Z,93.90
2018-03-29T08:56:40.883Z,93.90
2018-03-29T08:59:07.137Z,94.00
2018-03-29T09:01:33.404Z,94.80
2018-03-29T09:03:59.643Z,94.30
2018-03-29T09:06:27.004Z,93.60
2018-03-29T09:08:55.028Z,93.20
2018-03-29T09:11:21.268Z,93.30
2018-03-29T09:13:48.261Z,92.90
2018-03-29T09:16:15.321Z,94.60
2018-03-29T09:18:42.311Z,91.40
2018-03-29T09:21:09.172Z,91.30
2018-03-29T09:23:36.169Z,93.50
2018-03-29T09:26:03.596Z,92.00
2018-03-29T09:28:29.834Z,91.90
2018-03-29T09:30:56.089Z,92.20
2018-03-29T09:33:22.378Z,92.50
2018-03-29T09:35:48.637Z,92.90
2018-03-29T09:38:15.045Z,91.50
2018-03-29T09:40:42.026Z,90.70
2018-03-29T09:43:09.013Z,91.90
2018-03-29T09:45:36.011Z,91.10
2018-03-29T09:48:02.825Z,91.10
2018-03-29T09:50:29.554Z,89.30
2018-03-29T09:52:56.979Z,90.20
2018-03-29T09:55:23.226Z,90.00
2018-03-29T09:57:49.474Z,90.50
2018-03-29T10:00:16.229Z,90.30
2018-03-29T10:02:50.252Z,89.90
2018-03-29T10:05:17.710Z,90.60
2018-03-29T10:07:45.131Z,90.30
2018-03-29T10:10:11.413Z,90.30
2018-03-29T10:12:39.068Z,89.00
2018-03-29T10:15:06.070Z,90.50
2018-03-29T10:17:32.326Z,90.50
2018-03-29T10:19:58.601Z,89.60
2018-03-29T10:22:26.153Z,90.00
2018-03-29T10:24:53.155Z,88.40
2018-03-29T10:27:19.410Z,88.40
2018-03-29T10:29:45.680Z,87.50
2018-03-29T10:32:12.666Z,88.90
2018-03-29T10:34:39.037Z,88.90
2018-03-29T10:37:05.317Z,89.10
2018-03-29T10:39:32.257Z,88.30
2018-03-29T10:41:59.915Z,86.90
2018-03-29T10:44:26.905Z,84.70
2018-03-29T10:46:53.153Z,84.70
2018-03-29T10:49:19.957Z,86.10
2018-03-29T10:51:46.946Z,86.60
2018-03-29T10:54:13.211Z,86.60
2018-03-29T10:56:39.485Z,87.40
2018-03-29T10:59:06.370Z,88.20
2018-03-29T11:01:33.307Z,89.20
2018-03-29T11:04:00.127Z,88.30
2018-03-29T11:06:28.529Z,90.00
2018-03-29T11:08:54.784Z,90.10
2018-03-29T11:11:21.780Z,88.50
2018-03-29T11:13:48.767Z,91.50
2018-03-29T11:16:15.021Z,91.50
2018-03-29T11:18:43.155Z,90.40
2018-03-29T11:21:10.136Z,89.50
2018-03-29T11:23:36.396Z,89.50
2018-03-29T11:26:03.080Z,90.00
2018-03-29T11:28:30.069Z,90.50
2018-03-29T11:30:56.407Z,90.50
2018-03-29T11:33:22.957Z,89.40
2018-03-29T11:35:49.220Z,88.90
2018-03-29T11:38:15.468Z,88.90
2018-03-29T11:40:43.045Z,89.00
2018-03-29T11:43:10.801Z,90.00
2018-03-29T11:45:37.057Z,90.10
2018-03-29T11:48:05.341Z,89.30
2018-03-29T11:50:32.170Z,89.20
2018-03-29T11:52:59.181Z,86.90
2018-03-29T11:55:25.452Z,86.60
2018-03-29T11:57:52.098Z,88.60
2018-03-29T12:00:19.667Z,88.90
2018-03-29T12:02:47.334Z,88.40
2018-03-29T12:05:14.323Z,86.40
2018-03-29T12:07:41.234Z,86.40
2018-03-29T12:10:08.298Z,85.40
2018-03-29T12:12:35.293Z,85.50
2018-03-29T12:15:01.775Z,85.60
2018-03-29T12:17:29.550Z,82.60
2018-03-29T12:19:56.545Z,85.10
2018-03-29T12:22:22.798Z,85.00
2018-03-29T12:24:49.089Z,82.00
2018-03-29T12:27:15.342Z,81.40
2018-03-29T12:29:41.668Z,81.00
2018-03-29T12:32:07.995Z,82.40
2018-03-29T12:34:34.242Z,82.80
2018-03-29T12:37:00.499Z,82.70
2018-03-29T12:39:27.395Z,75.70
2018-03-29T12:41:54.396Z,79.10
2018-03-29T12:44:21.299Z,79.00
2018-03-29T12:46:48.322Z,78.20
2018-03-29T12:49:14.920Z,78.10
2018-03-29T12:51:41.180Z,78.70
2018-03-29T12:54:07.472Z,74.50
2018-03-29T12:56:48.531Z,78.30
2018-03-29T12:59:16.204Z,76.80
2018-03-29T13:01:43.188Z,78.10
2018-03-29T13:04:09.433Z,78.10
2018-03-29T13:06:36.330Z,76.70
2018-03-29T13:09:03.374Z,77.10
2018-03-29T13:11:29.633Z,76.90
2018-03-29T13:13:57.572Z,76.70
2018-03-29T13:16:23.929Z,76.40
2018-03-29T13:18:50.943Z,71.90
2018-03-29T13:21:17.229Z,71.50
2018-03-29T13:23:44.210Z,71.50
2018-03-29T13:26:10.573Z,71.30
2018-03-29T13:28:37.146Z,75.80
2018-03-29T13:31:04.157Z,75.10
2018-03-29T13:33:30.886Z,75.00
2018-03-29T13:35:57.138Z,73.10
2018-03-29T13:38:23.429Z,73.90
2018-03-29T13:40:50.162Z,71.80
2018-03-29T13:43:17.830Z,74.90
2018-03-29T13:45:44.057Z,75.00
2018-03-29T13:48:11.438Z,77.50
2018-03-29T13:50:38.253Z,77.00
2018-03-29T13:53:04.513Z,76.30
2018-03-29T13:55:32.174Z,75.60
2018-03-29T13:58:00.049Z,75.30
2018-03-29T14:00:27.101Z,77.00
2018-03-29T14:02:54.090Z,76.60
2018-03-29T14:05:20.692Z,76.50
2018-03-29T14:07:48.275Z,77.10
2018-03-29T14:10:14.558Z,77.00
2018-03-29T14:12:41.514Z,76.70
2018-03-29T14:15:09.353Z,75.80
2018-03-29T14:17:36.290Z,75.70
2018-03-29T14:20:03.208Z,75.70
2018-03-29T14:22:30.285Z,76.30
2018-03-29T14:24:56.555Z,76.30
2018-03-29T14:27:23.140Z,74.50
2018-03-29T14:29:50.140Z,77.00
2018-03-29T14:32:16.481Z,76.90
2018-03-29T14:34:43.069Z,76.50
2018-03-29T14:37:10.442Z,76.90
2018-03-29T14:39:37.482Z,76.70
2018-03-29T14:42:04.482Z,76.90
2018-03-29T14:44:31.176Z,76.90
2018-03-29T14:46:58.792Z,77.00
2018-03-29T14:49:25.492Z,77.00
2018-03-29T14:51:53.353Z,76.30
2018-03-29T14:54:20.446Z,76.30
2018-03-29T14:56:46.717Z,78.20
2018-03-29T14:59:12.970Z,77.60
2018-03-29T15:01:39.932Z,77.40
2018-03-29T15:04:06.929Z,77.20
2018-03-29T15:06:34.142Z,77.00
2018-03-29T15:09:01.152Z,76.70
2018-03-29T15:11:27.897Z,76.60
2018-03-29T15:13:54.175Z,76.90
2018-03-29T15:16:21.846Z,76.00
2018-03-29T15:18:48.833Z,77.30
2018-03-29T15:21:15.082Z,77.30
2018-03-29T15:23:41.620Z,77.60
2018-03-29T15:26:07.890Z,78.10
2018-03-29T15:28:34.305Z,77.60
2018-03-29T15:31:00.597Z,78.30
2018-03-29T15:33:26.865Z,78.30
2018-03-29T15:35:53.657Z,78.20
2018-03-29T15:38:21.230Z,79.30
2018-03-29T15:40:48.892Z,78.70
2018-03-29T15:43:16.452Z,79.40
2018-03-29T15:45:43.442Z,80.10
2018-03-29T15:48:10.253Z,80.10
2018-03-29T15:50:37.726Z,80.30
2018-03-29T15:53:05.073Z,80.30
2018-03-29T15:55:32.069Z,80.70
2018-03-29T15:57:58.311Z,80.70
2018-03-29T16:00:24.561Z,81.10
2018-03-29T16:02:51.453Z,81.60
2018-03-29T16:05:19.699Z,81.70
2018-03-29T16:07:46.689Z,81.70
2018-03-29T16:10:13.683Z,82.70
2018-03-29T16:12:40.004Z,82.80
2018-03-29T16:15:06.978Z,82.50
2018-03-29T16:17:34.534Z,82.50
2018-03-29T16:20:00.795Z,83.50
2018-03-29T16:22:27.662Z,83.70
2018-03-29T16:24:54.789Z,83.70
2018-03-29T16:27:21.049Z,82.90
2018-03-29T16:29:48.040Z,82.30
2018-03-29T16:32:14.289Z,82.10
2018-03-29T16:34:40.723Z,82.20
2018-03-29T16:37:07.529Z,82.80
2018-03-29T16:39:35.496Z,83.50
2018-03-29T16:42:02.507Z,83.40
2018-03-29T16:44:29.172Z,83.40
2018-03-29T16:46:56.113Z,83.50
2018-03-29T16:49:22.826Z,84.00
2018-03-29T16:51:49.084Z,84.50
2018-03-29T16:54:15.337Z,86.30
2018-03-29T16:56:43.948Z,86.90
2018-03-29T16:59:10.935Z,86.80
2018-03-29T17:01:37.726Z,86.80
2018-03-29T17:04:03.982Z,86.00
2018-03-29T17:06:31.547Z,87.90
2018-03-29T17:08:59.116Z,88.10
2018-03-29T17:11:26.116Z,88.60
2018-03-29T17:13:52.401Z,88.70
2018-03-29T17:16:19.755Z,88.40
2018-03-29T17:18:46.817Z,88.40
2018-03-29T17:21:13.990Z,88.20
2018-03-29T17:23:40.526Z,88.30
2018-03-29T17:26:06.790Z,90.70
2018-03-29T17:28:33.051Z,86.10
2018-03-29T17:30:59.721Z,84.20
2018-03-29T17:33:27.242Z,84.40
2018-03-29T17:35:53.490Z,84.40
2018-03-29T17:38:20.126Z,84.50
2018-03-29T17:40:47.602Z,86.60
2018-03-29T17:43:14.251Z,85.10
2018-03-29T17:45:41.020Z,84.60
2018-03-29T17:48:08.443Z,84.90
2018-03-29T17:50:35.151Z,84.90
2018-03-29T17:53:01.433Z,85.70
2018-03-29T17:55:27.691Z,85.40
2018-03-29T17:57:54.703Z,84.30
2018-03-29T18:00:20.960Z,84.30
2018-03-29T18:02:48.082Z,83.50
2018-03-29T18:05:14.337Z,83.40
2018-03-29T18:07:41.804Z,83.60
2018-03-29T18:10:08.450Z,83.60
2018-03-29T18:12:34.740Z,84.70
2018-03-29T18:15:00.991Z,84.20
2018-03-29T18:17:27.478Z,84.90
2018-03-29T18:19:54.470Z,83.80
2018-03-29T18:22:20.821Z,83.80
2018-03-29T18:24:47.716Z,83.70
2018-03-29T18:27:14.717Z,83.90
2018-03-29T18:29:40.978Z,83.80
2018-03-29T18:32:07.611Z,84.90
2018-03-29T18:34:33.875Z,86.40
2018-03-29T18:37:01.355Z,86.90
2018-03-29T18:39:28.312Z,86.80
2018-03-29T18:41:54.558Z,86.50
2018-03-29T18:44:21.353Z,88.80
2018-03-29T18:46:47.609Z,89.00
2018-03-29T18:49:15.273Z,88.40
2018-03-29T18:51:42.282Z,88.20
2018-03-29T18:54:09.180Z,88.20
2018-03-29T18:56:36.173Z,89.50
2018-03-29T18:59:02.458Z,89.60
2018-03-29T19:01:30.129Z,89.80
2018-03-29T19:03:57.140Z,88.80
2018-03-29T19:06:24.038Z,88.90
2018-03-29T19:08:51.054Z,88.30
2018-03-29T19:11:17.318Z,88.30
2018-03-29T19:13:44.702Z,88.50
2018-03-29T19:16:10.954Z,88.50
2018-03-29T19:18:37.396Z,89.90
2018-03-29T19:21:03.697Z,90.10
2018-03-29T19:23:30.682Z,90.50
2018-03-29T19:25:56.950Z,90.60
2018-03-29T19:28:23.585Z,90.10
2018-03-29T19:30:50.649Z,90.50
2018-03-29T19:33:16.905Z,89.80
2018-03-29T19:35:43.889Z,90.20
2018-03-29T19:38:10.426Z,90.20
2018-03-29T19:40:37.137Z,90.70
2018-03-29T19:43:04.546Z,90.20
2018-03-29T19:45:30.814Z,90.20
2018-03-29T19:47:57.625Z,90.10
2018-03-29T19:50:24.431Z,90.00
2018-03-29T19:52:51.753Z,90.60
2018-03-29T19:55:18.007Z,90.60
2018-03-29T19:57:44.282Z,91.00
2018-03-29T20:00:10.923Z,91.20
2018-03-29T20:02:37.636Z,91.20
2018-03-29T20:05:04.499Z,90.40
2018-03-29T20:07:31.929Z,90.40
2018-03-29T20:09:59.020Z,90.40
2018-03-29T20:12:27.619Z,90.80
2018-03-29T20:14:54.682Z,90.80
2018-03-29T20:17:21.385Z,91.20
2018-03-29T20:19:47.673Z,91.00
2018-03-29T20:22:14.617Z,90.30
2018-03-29T20:24:41.246Z,90.10
2018-03-29T20:27:07.851Z,89.60
2018-03-29T20:29:34.115Z,89.20
2018-03-29T20:32:01.779Z,90.30
2018-03-29T20:34:28.832Z,90.10
2018-03-29T20:36:56.288Z,90.50
2018-03-29T20:39:23.888Z,91.00
2018-03-29T20:41:50.477Z,91.00
2018-03-29T20:44:16.996Z,91.00
2018-03-29T20:46:43.244Z,90.10
2018-03-29T20:49:10.220Z,90.30
2018-03-29T20:51:37.245Z,91.00
2018-03-29T20:54:04.986Z,90.90
2018-03-29T20:56:31.305Z,91.70
2018-03-29T20:58:57.548Z,91.80
2018-03-29T21:01:25.600Z,91.60
2018-03-29T21:03:51.867Z,92.60
2018-03-29T21:06:18.788Z,92.40
2018-03-29T21:08:45.046Z,92.30
2018-03-29T21:11:11.323Z,92.20
2018-03-29T21:13:38.191Z,92.60
2018-03-29T21:16:05.193Z,90.90
2018-03-29T21:18:31.476Z,90.90
2018-03-29T21:20:58.478Z,88.90
2018-03-29T21:23:25.715Z,88.90
2018-03-29T21:25:51.961Z,90.10
2018-03-29T21:28:18.211Z,90.60
2018-03-29T21:30:45.300Z,90.90
2018-03-29T21:33:12.029Z,90.30
2018-03-29T21:35:38.816Z,90.20
2018-03-29T21:38:05.497Z,90.70
2018-03-29T21:40:33.104Z,90.90
2018-03-29T21:43:01.028Z,92.20
2018-03-29T21:45:27.281Z,92.40
2018-03-29T21:47:53.993Z,92.00
2018-03-29T21:50:20.806Z,92.20
2018-03-29T21:52:48.264Z,91.80
2018-03-29T21:55:15.411Z,91.60
2018-03-29T21:57:42.348Z,91.70
2018-03-29T22:00:08.984Z,92.20
2018-03-29T22:02:36.579Z,92.70
2018-03-29T22:05:03.597Z,91.90
2018-03-29T22:07:30.148Z,91.90
2018-03-29T22:09:56.428Z,91.90
2018-03-29T22:12:22.694Z,92.10
2018-03-29T22:14:49.403Z,92.50
2018-03-29T22:17:16.091Z,91.80
2018-03-29T22:19:42.340Z,91.60
2018-03-29T22:22:09.419Z,91.30
2018-03-29T22:24:37.717Z,91.60
2018-03-29T22:27:04.718Z,92.30
2018-03-29T22:29:31.590Z,92.30
2018-03-29T22:31:57.876Z,92.10
2018-03-29T22:34:24.611Z,92.00
2018-03-29T22:36:50.873Z,92.00
2018-03-29T22:39:17.132Z,92.10
2018-03-29T22:41:44.140Z,92.30
2018-03-29T22:44:10.868Z,92.40
2018-03-29T22:46:37.195Z,91.80
2018-03-29T22:49:05.069Z,93.00
2018-03-29T22:51:32.066Z,92.20
2018-03-29T22:53:58.356Z,92.20
2018-03-29T22:56:25.801Z,90.50
2018-03-29T22:58:52.042Z,90.30
2018-03-29T23:01:19.499Z,89.80
2018-03-29T23:03:46.323Z,89.80
2018-03-29T23:06:13.221Z,90.10
2018-03-29T23:08:39.518Z,89.60
2018-03-29T23:11:05.765Z,89.50
2018-03-29T23:13:32.566Z,89.40
2018-03-29T23:15:59.373Z,89.10
2018-03-29T23:18:26.923Z,89.20
2018-03-29T23:20:53.169Z,89.20
2018-03-29T23:23:20.157Z,88.60
2018-03-29T23:25:46.426Z,88.50
2018-03-29T23:28:12.686Z,88.80
2018-03-29T23:30:40.043Z,88.40
2018-03-29T23:33:07.547Z,89.00
2018-03-29T23:35:33.804Z,89.00
2018-03-29T23:38:00.051Z,89.00
2018-03-29T23:40:26.708Z,88.90
2018-03-29T23:42:53.700Z,88.20
2018-03-29T23:45:20.521Z,88.20
2018-03-29T23:47:47.870Z,88.00
2018-03-29T23:50:14.494Z,88.80
2018-03-29T23:52:40.745Z,87.00
2018-03-29T23:55:06.997Z,87.20
2018-03-29T23:57:33.995Z,87.30
